sensor_id;sensor_type;location;lat;lon;timestamp;P1;durP1;ratioP1;P2;durP2;ratioP2
78122;SDS011;67376;44.802;10.332;2023-04-24T00:00:30;3.67;;;2.28;;
78122;SDS011;67376;44.802;10.332;2023-04-24T00:02:56;2.53;;;2.10;;
78122;SDS011;67376;44.802;10.332;2023-04-24T00:05:22;4.15;;;2.47;;
78122;SDS011;67376;44.802;10.332;2023-04-24T00:07:49;4.05;;;2.35;;
78122;SDS011;67376;44.802;10.332;2023-04-24T00:10:17;4.13;;;2.20;;
78122;SDS011;67376;44.802;10.332;2023-04-24T00:12:43;3.67;;;1.98;;
78122;SDS011;67376;44.802;10.332;2023-04-24T00:15:09;3.75;;;2.22;;
78122;SDS011;67376;44.802;10.332;2023-04-24T00:17:35;4.35;;;2.00;;
78122;SDS011;67376;44.802;10.332;2023-04-24T00:20:00;3.63;;;2.40;;
78122;SDS011;67376;44.802;10.332;2023-04-24T00:22:29;5.80;;;2.75;;
78122;SDS011;67376;44.802;10.332;2023-04-24T00:24:55;3.50;;;2.17;;
78122;SDS011;67376;44.802;10.332;2023-04-24T00:27:20;2.90;;;2.25;;
78122;SDS011;67376;44.802;10.332;2023-04-24T00:29:46;3.70;;;2.33;;
78122;SDS011;67376;44.802;10.332;2023-04-24T00:32:11;4.22;;;2.10;;
78122;SDS011;67376;44.802;10.332;2023-04-24T00:34:37;3.15;;;1.80;;
78122;SDS011;67376;44.802;10.332;2023-04-24T00:37:02;2.72;;;2.00;;
78122;SDS011;67376;44.802;10.332;2023-04-24T00:39:28;3.47;;;2.60;;
78122;SDS011;67376;44.802;10.332;2023-04-24T00:41:53;3.45;;;2.33;;
78122;SDS011;67376;44.802;10.332;2023-04-24T00:44:18;3.42;;;2.10;;
78122;SDS011;67376;44.802;10.332;2023-04-24T00:46:44;2.85;;;2.15;;
78122;SDS011;67376;44.802;10.332;2023-04-24T00:49:11;4.50;;;2.35;;
78122;SDS011;67376;44.802;10.332;2023-04-24T00:51:37;4.05;;;2.50;;
78122;SDS011;67376;44.802;10.332;2023-04-24T00:54:02;4.03;;;2.38;;
78122;SDS011;67376;44.802;10.332;2023-04-24T00:56:28;3.47;;;2.20;;
78122;SDS011;67376;44.802;10.332;2023-04-24T00:58:53;5.03;;;2.35;;
78122;SDS011;67376;44.802;10.332;2023-04-24T01:01:19;3.63;;;2.47;;
78122;SDS011;67376;44.802;10.332;2023-04-24T01:03:46;4.68;;;2.55;;
78122;SDS011;67376;44.802;10.332;2023-04-24T01:06:11;3.20;;;2.10;;
78122;SDS011;67376;44.802;10.332;2023-04-24T01:08:37;2.65;;;2.10;;
78122;SDS011;67376;44.802;10.332;2023-04-24T01:11:04;4.30;;;2.75;;
78122;SDS011;67376;44.802;10.332;2023-04-24T01:13:31;6.47;;;2.72;;
78122;SDS011;67376;44.802;10.332;2023-04-24T01:15:57;4.15;;;2.60;;
78122;SDS011;67376;44.802;10.332;2023-04-24T01:18:23;4.70;;;2.33;;
78122;SDS011;67376;44.802;10.332;2023-04-24T01:20:48;3.67;;;2.60;;
78122;SDS011;67376;44.802;10.332;2023-04-24T01:23:18;5.03;;;2.33;;
78122;SDS011;67376;44.802;10.332;2023-04-24T01:25:43;5.43;;;2.20;;
78122;SDS011;67376;44.802;10.332;2023-04-24T01:28:09;4.68;;;2.33;;
78122;SDS011;67376;44.802;10.332;2023-04-24T01:30:35;3.88;;;2.13;;
78122;SDS011;67376;44.802;10.332;2023-04-24T01:33:00;4.10;;;2.20;;
78122;SDS011;67376;44.802;10.332;2023-04-24T01:35:26;4.82;;;2.55;;
78122;SDS011;67376;44.802;10.332;2023-04-24T01:37:52;5.40;;;2.22;;
78122;SDS011;67376;44.802;10.332;2023-04-24T01:40:17;4.78;;;3.13;;
78122;SDS011;67376;44.802;10.332;2023-04-24T01:42:42;4.03;;;2.20;;
78122;SDS011;67376;44.802;10.332;2023-04-24T01:45:09;2.50;;;2.03;;
78122;SDS011;67376;44.802;10.332;2023-04-24T01:47:36;3.88;;;2.15;;
78122;SDS011;67376;44.802;10.332;2023-04-24T01:50:01;2.65;;;2.00;;
78122;SDS011;67376;44.802;10.332;2023-04-24T01:52:27;3.25;;;2.30;;
78122;SDS011;67376;44.802;10.332;2023-04-24T01:54:56;4.10;;;2.20;;
78122;SDS011;67376;44.802;10.332;2023-04-24T01:57:21;4.70;;;2.20;;
78122;SDS011;67376;44.802;10.332;2023-04-24T01:59:47;3.47;;;1.90;;
78122;SDS011;67376;44.802;10.332;2023-04-24T02:02:13;4.07;;;2.25;;
78122;SDS011;67376;44.802;10.332;2023-04-24T02:04:39;4.00;;;2.38;;
78122;SDS011;67376;44.802;10.332;2023-04-24T02:07:04;6.70;;;2.65;;
78122;SDS011;67376;44.802;10.332;2023-04-24T02:09:30;3.50;;;2.03;;
78122;SDS011;67376;44.802;10.332;2023-04-24T02:11:55;5.05;;;2.38;;
78122;SDS011;67376;44.802;10.332;2023-04-24T02:14:21;5.82;;;2.65;;
78122;SDS011;67376;44.802;10.332;2023-04-24T02:16:46;5.00;;;3.00;;
78122;SDS011;67376;44.802;10.332;2023-04-24T02:19:12;3.55;;;2.33;;
78122;SDS011;67376;44.802;10.332;2023-04-24T02:21:37;5.15;;;2.50;;
78122;SDS011;67376;44.802;10.332;2023-04-24T02:24:02;5.55;;;2.20;;
78122;SDS011;67376;44.802;10.332;2023-04-24T02:26:28;4.45;;;2.35;;
78122;SDS011;67376;44.802;10.332;2023-04-24T02:28:53;2.95;;;2.10;;
78122;SDS011;67376;44.802;10.332;2023-04-24T02:31:19;4.75;;;2.50;;
78122;SDS011;67376;44.802;10.332;2023-04-24T02:33:44;5.07;;;2.50;;
78122;SDS011;67376;44.802;10.332;2023-04-24T02:36:10;4.68;;;2.60;;
78122;SDS011;67376;44.802;10.332;2023-04-24T02:38:35;5.30;;;2.70;;
78122;SDS011;67376;44.802;10.332;2023-04-24T02:41:01;2.88;;;2.20;;
78122;SDS011;67376;44.802;10.332;2023-04-24T02:43:27;3.03;;;2.33;;
78122;SDS011;67376;44.802;10.332;2023-04-24T02:45:52;4.20;;;2.20;;
78122;SDS011;67376;44.802;10.332;2023-04-24T02:48:18;3.97;;;2.30;;
78122;SDS011;67376;44.802;10.332;2023-04-24T02:50:45;4.60;;;2.45;;
78122;SDS011;67376;44.802;10.332;2023-04-24T02:53:11;4.30;;;2.30;;
78122;SDS011;67376;44.802;10.332;2023-04-24T02:55:36;3.67;;;2.35;;
78122;SDS011;67376;44.802;10.332;2023-04-24T02:58:01;3.15;;;2.60;;
78122;SDS011;67376;44.802;10.332;2023-04-24T03:00:27;4.10;;;2.33;;
78122;SDS011;67376;44.802;10.332;2023-04-24T03:02:52;3.85;;;2.40;;
78122;SDS011;67376;44.802;10.332;2023-04-24T03:05:18;5.50;;;2.38;;
78122;SDS011;67376;44.802;10.332;2023-04-24T03:07:43;5.03;;;2.72;;
78122;SDS011;67376;44.802;10.332;2023-04-24T03:10:09;5.60;;;2.38;;
78122;SDS011;67376;44.802;10.332;2023-04-24T03:12:34;3.67;;;2.42;;
78122;SDS011;67376;44.802;10.332;2023-04-24T03:15:00;3.28;;;2.03;;
78122;SDS011;67376;44.802;10.332;2023-04-24T03:17:25;3.33;;;2.13;;
78122;SDS011;67376;44.802;10.332;2023-04-24T03:19:50;4.82;;;2.63;;
78122;SDS011;67376;44.802;10.332;2023-04-24T03:22:16;3.20;;;2.17;;
78122;SDS011;67376;44.802;10.332;2023-04-24T03:24:41;5.45;;;3.05;;
78122;SDS011;67376;44.802;10.332;2023-04-24T03:27:06;3.85;;;2.25;;
78122;SDS011;67376;44.802;10.332;2023-04-24T03:29:32;3.67;;;2.40;;
78122;SDS011;67376;44.802;10.332;2023-04-24T03:31:57;3.72;;;2.50;;
78122;SDS011;67376;44.802;10.332;2023-04-24T03:34:23;7.00;;;2.70;;
78122;SDS011;67376;44.802;10.332;2023-04-24T03:36:48;2.75;;;2.20;;
78122;SDS011;67376;44.802;10.332;2023-04-24T03:39:13;4.03;;;2.67;;
78122;SDS011;67376;44.802;10.332;2023-04-24T03:41:39;4.68;;;2.40;;
78122;SDS011;67376;44.802;10.332;2023-04-24T03:44:04;3.92;;;2.50;;
78122;SDS011;67376;44.802;10.332;2023-04-24T03:46:30;4.35;;;2.10;;
78122;SDS011;67376;44.802;10.332;2023-04-24T03:48:55;3.75;;;2.20;;
78122;SDS011;67376;44.802;10.332;2023-04-24T03:51:21;4.10;;;2.50;;
78122;SDS011;67376;44.802;10.332;2023-04-24T03:53:47;2.50;;;2.00;;
78122;SDS011;67376;44.802;10.332;2023-04-24T03:56:13;4.13;;;2.40;;
78122;SDS011;67376;44.802;10.332;2023-04-24T03:58:38;3.75;;;2.53;;
78122;SDS011;67376;44.802;10.332;2023-04-24T04:01:04;3.83;;;2.38;;
78122;SDS011;67376;44.802;10.332;2023-04-24T04:03:30;3.75;;;2.20;;
78122;SDS011;67376;44.802;10.332;2023-04-24T04:05:55;3.67;;;2.20;;
78122;SDS011;67376;44.802;10.332;2023-04-24T04:08:21;2.55;;;2.08;;
78122;SDS011;67376;44.802;10.332;2023-04-24T04:10:46;2.83;;;2.22;;
78122;SDS011;67376;44.802;10.332;2023-04-24T04:13:12;3.45;;;2.30;;
78122;SDS011;67376;44.802;10.332;2023-04-24T04:15:37;3.90;;;2.10;;
78122;SDS011;67376;44.802;10.332;2023-04-24T04:18:03;5.63;;;3.97;;
78122;SDS011;67376;44.802;10.332;2023-04-24T04:20:28;4.75;;;2.30;;
78122;SDS011;67376;44.802;10.332;2023-04-24T04:22:53;2.90;;;2.35;;
78122;SDS011;67376;44.802;10.332;2023-04-24T04:25:19;3.67;;;2.55;;
78122;SDS011;67376;44.802;10.332;2023-04-24T04:27:45;2.83;;;1.88;;
78122;SDS011;67376;44.802;10.332;2023-04-24T04:30:12;2.97;;;2.25;;
78122;SDS011;67376;44.802;10.332;2023-04-24T04:32:38;4.30;;;2.17;;
78122;SDS011;67376;44.802;10.332;2023-04-24T04:35:04;5.78;;;2.50;;
78122;SDS011;67376;44.802;10.332;2023-04-24T04:37:30;3.95;;;2.45;;
78122;SDS011;67376;44.802;10.332;2023-04-24T04:39:57;3.70;;;2.70;;
78122;SDS011;67376;44.802;10.332;2023-04-24T04:42:23;3.45;;;2.50;;
78122;SDS011;67376;44.802;10.332;2023-04-24T04:44:49;4.40;;;2.97;;
78122;SDS011;67376;44.802;10.332;2023-04-24T04:47:15;5.65;;;3.40;;
78122;SDS011;67376;44.802;10.332;2023-04-24T04:49:42;5.38;;;2.83;;
78122;SDS011;67376;44.802;10.332;2023-04-24T04:52:08;4.72;;;2.88;;
78122;SDS011;67376;44.802;10.332;2023-04-24T04:54:33;4.55;;;3.63;;
78122;SDS011;67376;44.802;10.332;2023-04-24T04:56:59;6.35;;;4.05;;
78122;SDS011;67376;44.802;10.332;2023-04-24T04:59:25;3.75;;;3.03;;
78122;SDS011;67376;44.802;10.332;2023-04-24T05:01:51;6.28;;;4.05;;
78122;SDS011;67376;44.802;10.332;2023-04-24T05:04:16;4.40;;;3.03;;
78122;SDS011;67376;44.802;10.332;2023-04-24T05:06:41;6.65;;;3.30;;
78122;SDS011;67376;44.802;10.332;2023-04-24T05:09:07;5.85;;;2.72;;
78122;SDS011;67376;44.802;10.332;2023-04-24T05:11:32;4.93;;;2.63;;
78122;SDS011;67376;44.802;10.332;2023-04-24T05:13:57;6.63;;;2.92;;
78122;SDS011;67376;44.802;10.332;2023-04-24T05:16:23;5.50;;;3.13;;
78122;SDS011;67376;44.802;10.332;2023-04-24T05:18:48;8.20;;;2.55;;
78122;SDS011;67376;44.802;10.332;2023-04-24T05:21:14;5.28;;;2.75;;
78122;SDS011;67376;44.802;10.332;2023-04-24T05:23:39;4.32;;;2.83;;
78122;SDS011;67376;44.802;10.332;2023-04-24T05:26:05;6.82;;;3.50;;
78122;SDS011;67376;44.802;10.332;2023-04-24T05:28:30;6.93;;;3.67;;
78122;SDS011;67376;44.802;10.332;2023-04-24T05:30:56;15.95;;;4.65;;
78122;SDS011;67376;44.802;10.332;2023-04-24T05:33:21;6.80;;;4.30;;
78122;SDS011;67376;44.802;10.332;2023-04-24T05:35:47;9.75;;;4.88;;
78122;SDS011;67376;44.802;10.332;2023-04-24T05:38:13;7.47;;;4.55;;
78122;SDS011;67376;44.802;10.332;2023-04-24T05:40:39;8.52;;;4.50;;
78122;SDS011;67376;44.802;10.332;2023-04-24T05:43:05;7.13;;;3.80;;
78122;SDS011;67376;44.802;10.332;2023-04-24T05:45:30;6.32;;;3.85;;
78122;SDS011;67376;44.802;10.332;2023-04-24T05:47:56;4.90;;;3.15;;
78122;SDS011;67376;44.802;10.332;2023-04-24T05:50:22;6.55;;;3.38;;
78122;SDS011;67376;44.802;10.332;2023-04-24T05:52:47;6.80;;;3.22;;
78122;SDS011;67376;44.802;10.332;2023-04-24T05:55:13;6.57;;;3.05;;
78122;SDS011;67376;44.802;10.332;2023-04-24T05:57:38;5.05;;;3.10;;
78122;SDS011;67376;44.802;10.332;2023-04-24T06:00:04;7.07;;;2.97;;
78122;SDS011;67376;44.802;10.332;2023-04-24T06:02:32;10.30;;;3.15;;
78122;SDS011;67376;44.802;10.332;2023-04-24T06:04:58;7.93;;;2.97;;
78122;SDS011;67376;44.802;10.332;2023-04-24T06:07:24;7.82;;;3.20;;
78122;SDS011;67376;44.802;10.332;2023-04-24T06:09:53;6.03;;;3.42;;
78122;SDS011;67376;44.802;10.332;2023-04-24T06:12:19;5.25;;;3.13;;
78122;SDS011;67376;44.802;10.332;2023-04-24T06:14:45;6.72;;;3.60;;
78122;SDS011;67376;44.802;10.332;2023-04-24T06:17:10;6.05;;;3.63;;
78122;SDS011;67376;44.802;10.332;2023-04-24T06:19:35;5.47;;;3.38;;
78122;SDS011;67376;44.802;10.332;2023-04-24T06:22:01;5.20;;;3.17;;
78122;SDS011;67376;44.802;10.332;2023-04-24T06:24:29;7.15;;;3.78;;
78122;SDS011;67376;44.802;10.332;2023-04-24T06:26:55;6.57;;;3.50;;
78122;SDS011;67376;44.802;10.332;2023-04-24T06:29:22;7.63;;;3.58;;
78122;SDS011;67376;44.802;10.332;2023-04-24T06:31:47;5.75;;;3.35;;
78122;SDS011;67376;44.802;10.332;2023-04-24T06:34:13;5.82;;;3.47;;
78122;SDS011;67376;44.802;10.332;2023-04-24T06:36:38;6.30;;;3.20;;
78122;SDS011;67376;44.802;10.332;2023-04-24T06:39:03;6.70;;;3.38;;
78122;SDS011;67376;44.802;10.332;2023-04-24T06:41:29;5.75;;;3.53;;
78122;SDS011;67376;44.802;10.332;2023-04-24T06:43:54;7.70;;;3.97;;
78122;SDS011;67376;44.802;10.332;2023-04-24T06:46:20;6.43;;;3.15;;
78122;SDS011;67376;44.802;10.332;2023-04-24T06:48:48;5.47;;;2.83;;
78122;SDS011;67376;44.802;10.332;2023-04-24T06:51:15;9.27;;;3.33;;
78122;SDS011;67376;44.802;10.332;2023-04-24T06:53:42;5.88;;;3.30;;
78122;SDS011;67376;44.802;10.332;2023-04-24T06:56:07;4.10;;;3.17;;
78122;SDS011;67376;44.802;10.332;2023-04-24T06:58:33;6.20;;;4.13;;
78122;SDS011;67376;44.802;10.332;2023-04-24T07:00:58;4.85;;;2.92;;
78122;SDS011;67376;44.802;10.332;2023-04-24T07:03:24;5.97;;;3.33;;
78122;SDS011;67376;44.802;10.332;2023-04-24T07:05:49;6.55;;;3.70;;
78122;SDS011;67376;44.802;10.332;2023-04-24T07:08:14;4.70;;;3.33;;
78122;SDS011;67376;44.802;10.332;2023-04-24T07:10:42;6.78;;;3.38;;
78122;SDS011;67376;44.802;10.332;2023-04-24T07:13:07;7.47;;;3.95;;
78122;SDS011;67376;44.802;10.332;2023-04-24T07:15:33;8.80;;;3.55;;
78122;SDS011;67376;44.802;10.332;2023-04-24T07:17:59;4.10;;;3.15;;
78122;SDS011;67376;44.802;10.332;2023-04-24T07:20:24;6.25;;;3.95;;
78122;SDS011;67376;44.802;10.332;2023-04-24T07:22:50;5.93;;;3.35;;
78122;SDS011;67376;44.802;10.332;2023-04-24T07:25:16;6.63;;;3.20;;
78122;SDS011;67376;44.802;10.332;2023-04-24T07:27:42;4.50;;;3.17;;
78122;SDS011;67376;44.802;10.332;2023-04-24T07:30:07;4.63;;;3.30;;
78122;SDS011;67376;44.802;10.332;2023-04-24T07:32:33;4.50;;;3.30;;
78122;SDS011;67376;44.802;10.332;2023-04-24T07:35:00;6.57;;;3.67;;
78122;SDS011;67376;44.802;10.332;2023-04-24T07:37:25;5.40;;;3.20;;
78122;SDS011;67376;44.802;10.332;2023-04-24T07:39:51;5.72;;;2.90;;
78122;SDS011;67376;44.802;10.332;2023-04-24T07:42:16;5.22;;;3.17;;
78122;SDS011;67376;44.802;10.332;2023-04-24T07:44:42;4.00;;;2.75;;
78122;SDS011;67376;44.802;10.332;2023-04-24T07:47:07;5.68;;;3.30;;
78122;SDS011;67376;44.802;10.332;2023-04-24T07:49:33;4.90;;;3.58;;
78122;SDS011;67376;44.802;10.332;2023-04-24T07:51:59;3.63;;;2.70;;
78122;SDS011;67376;44.802;10.332;2023-04-24T07:54:27;3.88;;;3.00;;
78122;SDS011;67376;44.802;10.332;2023-04-24T07:56:53;5.25;;;4.03;;
78122;SDS011;67376;44.802;10.332;2023-04-24T07:59:19;5.38;;;3.17;;
78122;SDS011;67376;44.802;10.332;2023-04-24T08:01:44;4.75;;;3.20;;
78122;SDS011;67376;44.802;10.332;2023-04-24T08:04:09;5.43;;;3.22;;
78122;SDS011;67376;44.802;10.332;2023-04-24T08:06:35;6.65;;;3.38;;
78122;SDS011;67376;44.802;10.332;2023-04-24T08:09:00;5.88;;;3.28;;
78122;SDS011;67376;44.802;10.332;2023-04-24T08:11:26;4.75;;;3.10;;
78122;SDS011;67376;44.802;10.332;2023-04-24T08:13:52;4.05;;;2.80;;
78122;SDS011;67376;44.802;10.332;2023-04-24T08:16:17;5.07;;;3.03;;
78122;SDS011;67376;44.802;10.332;2023-04-24T08:18:43;5.25;;;3.38;;
78122;SDS011;67376;44.802;10.332;2023-04-24T08:21:08;5.60;;;3.20;;
78122;SDS011;67376;44.802;10.332;2023-04-24T08:23:34;4.63;;;2.85;;
78122;SDS011;67376;44.802;10.332;2023-04-24T08:25:59;7.55;;;3.05;;
78122;SDS011;67376;44.802;10.332;2023-04-24T08:28:24;4.47;;;3.22;;
78122;SDS011;67376;44.802;10.332;2023-04-24T08:30:50;5.60;;;3.17;;
78122;SDS011;67376;44.802;10.332;2023-04-24T08:33:19;4.68;;;3.40;;
78122;SDS011;67376;44.802;10.332;2023-04-24T08:35:47;4.18;;;2.80;;
78122;SDS011;67376;44.802;10.332;2023-04-24T08:38:13;4.18;;;2.70;;
78122;SDS011;67376;44.802;10.332;2023-04-24T08:40:38;4.55;;;3.25;;
78122;SDS011;67376;44.802;10.332;2023-04-24T08:43:04;4.35;;;2.78;;
78122;SDS011;67376;44.802;10.332;2023-04-24T08:45:30;7.00;;;3.10;;
78122;SDS011;67376;44.802;10.332;2023-04-24T08:47:55;4.15;;;2.80;;
78122;SDS011;67376;44.802;10.332;2023-04-24T08:50:23;4.20;;;2.60;;
78122;SDS011;67376;44.802;10.332;2023-04-24T08:52:50;4.65;;;2.80;;
78122;SDS011;67376;44.802;10.332;2023-04-24T08:55:18;5.32;;;2.90;;
78122;SDS011;67376;44.802;10.332;2023-04-24T08:57:45;4.38;;;2.60;;
78122;SDS011;67376;44.802;10.332;2023-04-24T09:00:15;7.40;;;2.83;;
78122;SDS011;67376;44.802;10.332;2023-04-24T09:02:42;6.78;;;2.85;;
78122;SDS011;67376;44.802;10.332;2023-04-24T09:05:08;5.20;;;2.80;;
78122;SDS011;67376;44.802;10.332;2023-04-24T09:07:35;4.32;;;3.00;;
78122;SDS011;67376;44.802;10.332;2023-04-24T09:10:04;2.80;;;2.40;;
78122;SDS011;67376;44.802;10.332;2023-04-24T09:12:31;6.10;;;3.10;;
78122;SDS011;67376;44.802;10.332;2023-04-24T09:14:59;3.35;;;2.50;;
78122;SDS011;67376;44.802;10.332;2023-04-24T09:17:25;4.65;;;2.72;;
78122;SDS011;67376;44.802;10.332;2023-04-24T09:19:53;4.93;;;2.95;;
78122;SDS011;67376;44.802;10.332;2023-04-24T09:22:18;4.05;;;2.80;;
78122;SDS011;67376;44.802;10.332;2023-04-24T09:24:45;3.63;;;2.38;;
78122;SDS011;67376;44.802;10.332;2023-04-24T09:27:11;3.88;;;2.97;;
78122;SDS011;67376;44.802;10.332;2023-04-24T09:29:37;3.83;;;2.67;;
78122;SDS011;67376;44.802;10.332;2023-04-24T09:32:19;5.97;;;3.08;;
78122;SDS011;67376;44.802;10.332;2023-04-24T09:34:46;4.60;;;2.88;;
78122;SDS011;67376;44.802;10.332;2023-04-24T09:37:26;4.38;;;2.97;;
78122;SDS011;67376;44.802;10.332;2023-04-24T09:42:57;3.40;;;2.42;;
78122;SDS011;67376;44.802;10.332;2023-04-24T09:45:29;2.92;;;2.55;;
78122;SDS011;67376;44.802;10.332;2023-04-24T09:50:26;5.18;;;2.85;;
78122;SDS011;67376;44.802;10.332;2023-04-24T09:52:58;3.85;;;2.63;;
78122;SDS011;67376;44.802;10.332;2023-04-24T09:55:26;3.40;;;2.83;;
78122;SDS011;67376;44.802;10.332;2023-04-24T09:57:54;3.78;;;2.95;;
78122;SDS011;67376;44.802;10.332;2023-04-24T10:00:22;3.95;;;2.67;;
78122;SDS011;67376;44.802;10.332;2023-04-24T10:02:54;4.70;;;3.25;;
78122;SDS011;67376;44.802;10.332;2023-04-24T10:05:28;4.13;;;2.90;;
78122;SDS011;67376;44.802;10.332;2023-04-24T10:10:22;7.15;;;3.25;;
78122;SDS011;67376;44.802;10.332;2023-04-24T10:12:47;5.40;;;2.78;;
78122;SDS011;67376;44.802;10.332;2023-04-24T10:15:14;6.45;;;3.30;;
78122;SDS011;67376;44.802;10.332;2023-04-24T10:17:42;5.13;;;3.63;;
78122;SDS011;67376;44.802;10.332;2023-04-24T10:20:10;5.22;;;2.72;;
78122;SDS011;67376;44.802;10.332;2023-04-24T10:22:36;3.40;;;2.50;;
78122;SDS011;67376;44.802;10.332;2023-04-24T10:25:03;3.92;;;2.75;;
78122;SDS011;67376;44.802;10.332;2023-04-24T10:27:31;4.80;;;2.63;;
78122;SDS011;67376;44.802;10.332;2023-04-24T10:29:57;5.60;;;2.85;;
78122;SDS011;67376;44.802;10.332;2023-04-24T10:32:23;5.78;;;2.92;;
78122;SDS011;67376;44.802;10.332;2023-04-24T10:34:48;4.38;;;3.10;;
78122;SDS011;67376;44.802;10.332;2023-04-24T10:37:14;3.28;;;2.33;;
78122;SDS011;67376;44.802;10.332;2023-04-24T10:39:40;3.53;;;2.70;;
78122;SDS011;67376;44.802;10.332;2023-04-24T10:42:15;5.28;;;3.45;;
78122;SDS011;67376;44.802;10.332;2023-04-24T10:44:41;4.40;;;3.00;;
78122;SDS011;67376;44.802;10.332;2023-04-24T10:47:12;3.40;;;2.50;;
78122;SDS011;67376;44.802;10.332;2023-04-24T10:49:39;4.20;;;2.83;;
78122;SDS011;67376;44.802;10.332;2023-04-24T10:52:05;5.28;;;3.00;;
78122;SDS011;67376;44.802;10.332;2023-04-24T10:59:47;3.83;;;2.40;;
78122;SDS011;67376;44.802;10.332;2023-04-24T11:02:17;5.20;;;3.13;;
78122;SDS011;67376;44.802;10.332;2023-04-24T11:04:43;4.80;;;2.65;;
78122;SDS011;67376;44.802;10.332;2023-04-24T11:07:10;3.83;;;2.80;;
78122;SDS011;67376;44.802;10.332;2023-04-24T11:09:36;3.88;;;2.78;;
78122;SDS011;67376;44.802;10.332;2023-04-24T11:12:09;5.72;;;3.20;;
78122;SDS011;67376;44.802;10.332;2023-04-24T11:20:15;3.88;;;2.70;;
78122;SDS011;67376;44.802;10.332;2023-04-24T11:22:42;5.07;;;2.63;;
78122;SDS011;67376;44.802;10.332;2023-04-24T11:25:09;3.97;;;3.17;;
78122;SDS011;67376;44.802;10.332;2023-04-24T11:27:40;3.28;;;2.97;;
78122;SDS011;67376;44.802;10.332;2023-04-24T11:30:08;4.10;;;3.05;;
78122;SDS011;67376;44.802;10.332;2023-04-24T11:32:36;4.05;;;3.03;;
78122;SDS011;67376;44.802;10.332;2023-04-24T11:35:06;5.40;;;3.03;;
78122;SDS011;67376;44.802;10.332;2023-04-24T11:37:41;4.95;;;3.10;;
78122;SDS011;67376;44.802;10.332;2023-04-24T11:40:17;3.55;;;2.50;;
78122;SDS011;67376;44.802;10.332;2023-04-24T11:42:48;4.10;;;3.00;;
78122;SDS011;67376;44.802;10.332;2023-04-24T11:47:46;5.82;;;2.97;;
78122;SDS011;67376;44.802;10.332;2023-04-24T11:50:12;5.70;;;3.28;;
78122;SDS011;67376;44.802;10.332;2023-04-24T11:52:44;4.55;;;2.95;;
78122;SDS011;67376;44.802;10.332;2023-04-24T11:57:39;2.72;;;2.45;;
78122;SDS011;67376;44.802;10.332;2023-04-24T12:00:14;3.08;;;2.78;;
78122;SDS011;67376;44.802;10.332;2023-04-24T12:02:41;4.03;;;2.85;;
78122;SDS011;67376;44.802;10.332;2023-04-24T12:05:06;4.03;;;3.00;;
78122;SDS011;67376;44.802;10.332;2023-04-24T12:07:36;5.28;;;2.90;;
78122;SDS011;67376;44.802;10.332;2023-04-24T12:10:07;4.15;;;3.10;;
78122;SDS011;67376;44.802;10.332;2023-04-24T12:12:34;3.33;;;2.63;;
78122;SDS011;67376;44.802;10.332;2023-04-24T12:15:00;5.55;;;3.15;;
78122;SDS011;67376;44.802;10.332;2023-04-24T12:17:33;4.70;;;3.15;;
78122;SDS011;67376;44.802;10.332;2023-04-24T12:22:42;4.40;;;3.13;;
78122;SDS011;67376;44.802;10.332;2023-04-24T12:25:09;5.35;;;3.28;;
78122;SDS011;67376;44.802;10.332;2023-04-24T12:27:35;3.65;;;2.85;;
78122;SDS011;67376;44.802;10.332;2023-04-24T12:30:03;5.60;;;3.78;;
78122;SDS011;67376;44.802;10.332;2023-04-24T12:32:30;6.72;;;3.55;;
78122;SDS011;67376;44.802;10.332;2023-04-24T12:34:56;19.33;;;3.17;;
78122;SDS011;67376;44.802;10.332;2023-04-24T12:37:25;5.57;;;3.40;;
78122;SDS011;67376;44.802;10.332;2023-04-24T12:39:58;3.88;;;3.10;;
78122;SDS011;67376;44.802;10.332;2023-04-24T12:42:28;6.22;;;3.05;;
78122;SDS011;67376;44.802;10.332;2023-04-24T12:45:05;5.97;;;3.50;;
78122;SDS011;67376;44.802;10.332;2023-04-24T12:47:32;5.43;;;3.25;;
78122;SDS011;67376;44.802;10.332;2023-04-24T12:49:59;3.22;;;2.75;;
78122;SDS011;67376;44.802;10.332;2023-04-24T12:52:25;6.18;;;3.00;;
78122;SDS011;67376;44.802;10.332;2023-04-24T12:54:52;6.80;;;2.80;;
78122;SDS011;67376;44.802;10.332;2023-04-24T12:57:20;3.33;;;2.90;;
78122;SDS011;67376;44.802;10.332;2023-04-24T12:59:45;3.63;;;3.00;;
78122;SDS011;67376;44.802;10.332;2023-04-24T13:02:11;4.00;;;2.97;;
78122;SDS011;67376;44.802;10.332;2023-04-24T13:04:36;5.05;;;3.30;;
78122;SDS011;67376;44.802;10.332;2023-04-24T13:07:02;3.55;;;3.00;;
78122;SDS011;67376;44.802;10.332;2023-04-24T13:09:28;5.35;;;3.40;;
78122;SDS011;67376;44.802;10.332;2023-04-24T13:11:53;4.20;;;3.00;;
78122;SDS011;67376;44.802;10.332;2023-04-24T13:14:20;3.78;;;3.08;;
78122;SDS011;67376;44.802;10.332;2023-04-24T13:16:45;3.50;;;3.03;;
78122;SDS011;67376;44.802;10.332;2023-04-24T13:19:11;3.85;;;2.60;;
78122;SDS011;67376;44.802;10.332;2023-04-24T13:21:36;4.60;;;3.72;;
78122;SDS011;67376;44.802;10.332;2023-04-24T13:24:01;7.78;;;3.33;;
78122;SDS011;67376;44.802;10.332;2023-04-24T13:26:29;4.68;;;3.38;;
78122;SDS011;67376;44.802;10.332;2023-04-24T13:28:55;6.07;;;3.22;;
78122;SDS011;67376;44.802;10.332;2023-04-24T13:31:21;6.78;;;3.33;;
78122;SDS011;67376;44.802;10.332;2023-04-24T13:33:46;5.90;;;3.08;;
78122;SDS011;67376;44.802;10.332;2023-04-24T13:36:11;6.80;;;3.25;;
78122;SDS011;67376;44.802;10.332;2023-04-24T13:38:37;4.80;;;3.03;;
78122;SDS011;67376;44.802;10.332;2023-04-24T13:41:02;6.10;;;3.05;;
78122;SDS011;67376;44.802;10.332;2023-04-24T13:43:28;6.32;;;2.97;;
78122;SDS011;67376;44.802;10.332;2023-04-24T13:45:53;5.00;;;3.03;;
78122;SDS011;67376;44.802;10.332;2023-04-24T13:48:19;3.08;;;2.60;;
78122;SDS011;67376;44.802;10.332;2023-04-24T13:50:45;3.60;;;3.00;;
78122;SDS011;67376;44.802;10.332;2023-04-24T13:53:13;5.55;;;3.00;;
78122;SDS011;67376;44.802;10.332;2023-04-24T13:55:38;3.53;;;2.83;;
78122;SDS011;67376;44.802;10.332;2023-04-24T13:58:04;5.07;;;3.10;;
78122;SDS011;67376;44.802;10.332;2023-04-24T14:00:30;4.28;;;2.78;;
78122;SDS011;67376;44.802;10.332;2023-04-24T14:02:56;4.93;;;3.38;;
78122;SDS011;67376;44.802;10.332;2023-04-24T14:05:21;3.85;;;3.05;;
78122;SDS011;67376;44.802;10.332;2023-04-24T14:07:47;4.05;;;3.20;;
78122;SDS011;67376;44.802;10.332;2023-04-24T14:10:12;4.18;;;2.80;;
78122;SDS011;67376;44.802;10.332;2023-04-24T14:12:38;5.82;;;3.13;;
78122;SDS011;67376;44.802;10.332;2023-04-24T14:15:03;3.78;;;2.60;;
78122;SDS011;67376;44.802;10.332;2023-04-24T14:17:30;3.92;;;2.65;;
78122;SDS011;67376;44.802;10.332;2023-04-24T14:19:55;5.05;;;2.58;;
78122;SDS011;67376;44.802;10.332;2023-04-24T14:22:21;5.72;;;2.55;;
78122;SDS011;67376;44.802;10.332;2023-04-24T14:24:47;7.32;;;2.65;;
78122;SDS011;67376;44.802;10.332;2023-04-24T14:27:12;4.55;;;2.20;;
78122;SDS011;67376;44.802;10.332;2023-04-24T14:29:38;4.07;;;2.50;;
78122;SDS011;67376;44.802;10.332;2023-04-24T14:32:03;3.80;;;2.50;;
78122;SDS011;67376;44.802;10.332;2023-04-24T14:34:28;4.05;;;2.60;;
78122;SDS011;67376;44.802;10.332;2023-04-24T14:36:54;5.28;;;2.70;;
78122;SDS011;67376;44.802;10.332;2023-04-24T14:39:19;9.88;;;2.97;;
78122;SDS011;67376;44.802;10.332;2023-04-24T14:41:45;3.72;;;2.40;;
78122;SDS011;67376;44.802;10.332;2023-04-24T14:44:10;2.72;;;2.35;;
78122;SDS011;67376;44.802;10.332;2023-04-24T14:46:36;3.42;;;2.25;;
78122;SDS011;67376;44.802;10.332;2023-04-24T14:49:01;3.35;;;2.17;;
78122;SDS011;67376;44.802;10.332;2023-04-24T14:51:27;4.50;;;2.42;;
78122;SDS011;67376;44.802;10.332;2023-04-24T14:53:52;3.22;;;2.40;;